Terminal Aerodrome Forecast
Issued by NWS

Home | Current Version | Previous Version | Text Only | Print | Product List | Glossary On
Versions: 1 2 3 4 5 6 7 8 9 10 11 12 13 14
000
FTUS45 KRIW 031100
TAFBPI
TAF
KBPI 031137Z 0312/0412 VRB06KT P6SM SCT090
     FM031700 16008KT P6SM VCSH SCT080 BKN150
     FM032100 VRB15G25KT P6SM VCTS SCT060CB BKN120
     FM040200 VRB05KT P6SM VCSH BKN100
     FM040500 VRB05KT P6SM SCT120=

USA.gov is the U.S. government's official web portal to all federal, state and local government web resources and services.